Time;durP1;ratioP1;P1;durP2;ratioP2;P2;SDS_P1;SDS_P2;PMS_P1;PMS_P2;Temp;Humidity;BMP_temperature;BMP_pressure;BME280_temperature;BME280_humidity;BME280_pressure;Samples;Min_cycle;Max_cycle;Signal;HPM_P1;HPM_P2
2022/05/05 00:02:09;;;;;;;16.35;4.18;;;;;;;;;;5094808;28;20613;-69
2022/05/05 00:04:38;;;;;;;17.40;4.60;;;;;;;;;;5095167;28;20228;-69
2022/05/05 00:07:06;;;;;;;14.65;4.38;;;;;;;;;;5095054;28;20208;-68
2022/05/05 00:09:33;;;;;;;16.75;4.50;;;;;;;;;;5094591;28;20661;-69
2022/05/05 00:14:45;;;;;;;19.95;5.20;;;;;;;;;;5094916;28;20759;-69
2022/05/05 00:17:13;;;;;;;17.70;5.20;;;;;;;;;;5094938;28;20589;-69
2022/05/05 00:19:43;;;;;;;18.58;5.15;;;;;;;;;;5094844;28;20207;-69
2022/05/05 00:22:11;;;;;;;18.25;5.40;;;;;;;;;;5094597;28;20756;-69
2022/05/05 00:24:39;;;;;;;18.52;5.25;;;;;;;;;;5094242;28;20228;-69
2022/05/05 00:27:07;;;;;;;16.60;4.97;;;;;;;;;;5094639;28;20204;-69
2022/05/05 00:29:35;;;;;;;17.08;5.10;;;;;;;;;;5094452;28;20684;-69
2022/05/05 00:32:02;;;;;;;20.08;5.60;;;;;;;;;;5094630;28;20200;-69
2022/05/05 00:34:30;;;;;;;16.35;5.00;;;;;;;;;;5094430;28;20708;-68
2022/05/05 00:36:59;;;;;;;16.08;4.70;;;;;;;;;;5094592;28;20211;-69
2022/05/05 00:39:27;;;;;;;18.50;5.70;;;;;;;;;;5094166;28;20210;-69
2022/05/05 00:41:54;;;;;;;19.85;4.90;;;;;;;;;;5094124;28;20200;-69
2022/05/05 00:44:22;;;;;;;20.55;5.70;;;;;;;;;;5094219;28;20719;-69
2022/05/05 00:46:50;;;;;;;17.85;5.93;;;;;;;;;;5093603;28;20200;-69
2022/05/05 00:49:17;;;;;;;15.27;5.00;;;;;;;;;;5093973;28;20203;-69
2022/05/05 00:51:45;;;;;;;18.50;5.38;;;;;;;;;;5094436;28;20203;-69
2022/05/05 00:54:15;;;;;;;20.60;5.60;;;;;;;;;;5094056;28;20264;-69
2022/05/05 00:56:42;;;;;;;16.50;5.05;;;;;;;;;;5093899;28;20215;-69
2022/05/05 00:59:10;;;;;;;15.15;4.78;;;;;;;;;;5094056;28;20198;-70
2022/05/05 01:01:37;;;;;;;16.40;5.05;;;;;;;;;;5094067;28;20238;-69
2022/05/05 01:04:07;;;;;;;16.05;4.90;;;;;;;;;;5093813;28;20220;-69
2022/05/05 01:06:34;;;;;;;15.02;4.43;;;;;;;;;;5093897;28;20196;-69
2022/05/05 01:09:02;;;;;;;17.05;4.95;;;;;;;;;;5093766;28;20196;-69
2022/05/05 01:11:31;;;;;;;17.33;4.70;;;;;;;;;;5093788;28;20282;-69
2022/05/05 01:13:59;;;;;;;16.00;4.60;;;;;;;;;;5093552;28;20665;-69
2022/05/05 01:16:27;;;;;;;14.65;4.28;;;;;;;;;;5093543;28;20669;-69
2022/05/05 01:18:55;;;;;;;14.15;4.50;;;;;;;;;;5093533;28;20291;-69
2022/05/05 01:21:24;;;;;;;17.52;5.15;;;;;;;;;;5093222;28;20207;-69
2022/05/05 01:23:52;;;;;;;18.15;5.63;;;;;;;;;;5093465;28;20232;-68
2022/05/05 01:29:06;;;;;;;16.70;4.63;;;;;;;;;;5093729;28;20581;-68
2022/05/05 01:31:34;;;;;;;20.88;5.78;;;;;;;;;;5092911;28;20200;-69
2022/05/05 01:34:01;;;;;;;17.40;4.72;;;;;;;;;;5093190;28;20196;-69
2022/05/05 01:36:30;;;;;;;16.15;4.53;;;;;;;;;;5093379;28;20203;-68
2022/05/05 01:38:57;;;;;;;20.08;5.57;;;;;;;;;;5093229;28;20661;-68
2022/05/05 01:41:25;;;;;;;17.88;5.50;;;;;;;;;;5092997;28;20601;-69
2022/05/05 01:43:52;;;;;;;20.52;6.00;;;;;;;;;;5093108;28;20210;-69
2022/05/05 01:46:20;;;;;;;18.40;5.50;;;;;;;;;;5092860;28;20228;-69
2022/05/05 01:48:47;;;;;;;17.23;5.22;;;;;;;;;;5093169;28;20207;-69
2022/05/05 01:51:15;;;;;;;19.83;5.75;;;;;;;;;;5092746;28;20207;-68
2022/05/05 01:53:43;;;;;;;19.05;6.00;;;;;;;;;;5092917;28;20196;-68
2022/05/05 01:56:12;;;;;;;19.02;6.20;;;;;;;;;;5093027;28;20209;-68
2022/05/05 01:58:41;;;;;;;19.25;5.88;;;;;;;;;;5092583;28;20196;-69
2022/05/05 02:01:09;;;;;;;18.23;5.70;;;;;;;;;;5092960;28;20737;-68
2022/05/05 02:03:37;;;;;;;16.30;5.32;;;;;;;;;;5092806;28;20248;-68
2022/05/05 02:06:05;;;;;;;16.92;5.70;;;;;;;;;;5092903;28;20700;-68
2022/05/05 02:08:32;;;;;;;17.52;6.15;;;;;;;;;;5092775;28;20207;-68
2022/05/05 02:11:01;;;;;;;18.40;6.18;;;;;;;;;;5092742;28;20291;-68
2022/05/05 02:13:28;;;;;;;19.38;5.10;;;;;;;;;;5092247;28;20214;-69
2022/05/05 02:15:56;;;;;;;21.67;5.97;;;;;;;;;;5092693;28;20206;-69
2022/05/05 02:18:23;;;;;;;18.30;5.68;;;;;;;;;;5092516;28;20196;-68
2022/05/05 02:20:52;;;;;;;18.63;6.18;;;;;;;;;;5092616;28;20227;-68
2022/05/05 02:23:20;;;;;;;17.45;6.93;;;;;;;;;;5092268;28;20322;-69
2022/05/05 02:25:47;;;;;;;16.52;5.57;;;;;;;;;;5092087;28;20228;-68
2022/05/05 02:28:17;;;;;;;21.20;7.25;;;;;;;;;;5092580;28;20197;-68
2022/05/05 02:30:45;;;;;;;18.80;6.70;;;;;;;;;;5092457;28;20244;-69
2022/05/05 02:33:12;;;;;;;19.73;6.78;;;;;;;;;;5092310;28;20207;-68
2022/05/05 02:35:40;;;;;;;19.92;6.90;;;;;;;;;;5092234;28;20289;-68
2022/05/05 02:40:52;;;;;;;19.13;6.80;;;;;;;;;;5092354;28;20509;-68
2022/05/05 02:43:21;;;;;;;18.80;6.70;;;;;;;;;;5092310;28;20556;-68
2022/05/05 02:45:48;;;;;;;21.63;7.03;;;;;;;;;;5091974;28;20235;-69
2022/05/05 02:48:16;;;;;;;16.45;4.93;;;;;;;;;;5092279;28;20288;-69
2022/05/05 02:50:43;;;;;;;16.13;5.50;;;;;;;;;;5092061;28;20199;-68
2022/05/05 02:55:52;;;;;;;16.55;5.32;;;;;;;;;;5092121;28;20216;-69
2022/05/05 02:58:21;;;;;;;17.80;6.03;;;;;;;;;;5091836;28;20195;-69
2022/05/05 03:00:48;;;;;;;17.55;5.55;;;;;;;;;;5091931;28;20199;-68
2022/05/05 03:03:16;;;;;;;18.92;5.60;;;;;;;;;;5091450;28;20224;-69
2022/05/05 03:05:43;;;;;;;19.10;6.45;;;;;;;;;;5091948;28;20224;-69
2022/05/05 03:08:11;;;;;;;26.05;6.78;;;;;;;;;;5092282;28;20235;-69
2022/05/05 03:10:39;;;;;;;19.83;6.85;;;;;;;;;;5093901;28;20657;-69
2022/05/05 03:13:06;;;;;;;21.40;7.22;;;;;;;;;;5096085;28;20218;-68
2022/05/05 03:15:35;;;;;;;17.27;5.90;;;;;;;;;;5095810;28;20208;-69
2022/05/05 03:18:02;;;;;;;17.42;5.75;;;;;;;;;;5095876;28;20208;-69
2022/05/05 03:20:30;;;;;;;15.00;4.50;;;;;;;;;;5096117;28;20231;-68
2022/05/05 03:22:57;;;;;;;14.45;4.82;;;;;;;;;;5096089;28;20235;-68
2022/05/05 03:25:26;;;;;;;16.23;5.13;;;;;;;;;;5095656;28;20234;-69
2022/05/05 03:27:53;;;;;;;16.80;5.47;;;;;;;;;;5095890;28;20223;-68
2022/05/05 03:30:21;;;;;;;15.38;3.90;;;;;;;;;;5095569;28;20676;-69
2022/05/05 03:32:49;;;;;;;16.10;4.72;;;;;;;;;;5095755;28;20658;-68
2022/05/05 03:35:17;;;;;;;16.33;5.70;;;;;;;;;;5095346;28;20196;-69
2022/05/05 03:37:44;;;;;;;14.35;4.57;;;;;;;;;;5095557;28;20204;-69
2022/05/05 03:40:12;;;;;;;15.85;4.85;;;;;;;;;;5095603;28;20199;-68
2022/05/05 03:42:40;;;;;;;17.17;4.65;;;;;;;;;;5095633;28;20199;-68
2022/05/05 03:45:08;;;;;;;16.65;5.32;;;;;;;;;;5095238;28;20207;-68
2022/05/05 03:47:35;;;;;;;15.63;4.65;;;;;;;;;;5095344;28;20208;-69
2022/05/05 03:50:04;;;;;;;16.30;5.40;;;;;;;;;;5095179;28;20197;-69
2022/05/05 03:52:32;;;;;;;16.38;4.40;;;;;;;;;;5095262;28;20672;-69
2022/05/05 03:54:59;;;;;;;13.35;3.88;;;;;;;;;;5095225;28;20198;-69
2022/05/05 03:57:27;;;;;;;15.10;4.25;;;;;;;;;;5094811;28;20193;-69
2022/05/05 03:59:55;;;;;;;16.35;4.05;;;;;;;;;;5095326;28;20203;-69
2022/05/05 04:02:22;;;;;;;19.73;4.75;;;;;;;;;;5094951;28;20303;-69
2022/05/05 04:04:50;;;;;;;15.95;5.10;;;;;;;;;;5095292;28;20291;-68
2022/05/05 04:07:19;;;;;;;15.00;4.55;;;;;;;;;;5094622;28;20234;-69
2022/05/05 04:09:46;;;;;;;19.15;5.32;;;;;;;;;;5095015;28;20192;-69
2022/05/05 04:12:14;;;;;;;17.30;5.10;;;;;;;;;;5094741;28;20196;-68
2022/05/05 04:14:41;;;;;;;22.20;5.32;;;;;;;;;;5095009;28;20207;-68
2022/05/05 04:17:09;;;;;;;15.98;5.25;;;;;;;;;;5094932;28;20204;-68
2022/05/05 04:19:36;;;;;;;15.50;5.22;;;;;;;;;;5094776;28;20202;-68
2022/05/05 04:22:04;;;;;;;16.65;5.78;;;;;;;;;;5093398;28;20200;-68
2022/05/05 04:24:32;;;;;;;17.00;5.85;;;;;;;;;;5094919;28;20228;-68
2022/05/05 04:27:00;;;;;;;16.70;6.10;;;;;;;;;;5094658;28;20693;-68
2022/05/05 04:29:27;;;;;;;17.98;5.85;;;;;;;;;;5094263;28;20669;-68
2022/05/05 04:31:55;;;;;;;20.05;6.22;;;;;;;;;;5094471;28;20196;-68
2022/05/05 04:34:23;;;;;;;16.80;5.90;;;;;;;;;;5094809;28;20200;-68
2022/05/05 04:36:50;;;;;;;19.90;6.80;;;;;;;;;;5094406;28;20291;-68
2022/05/05 04:39:19;;;;;;;21.60;6.38;;;;;;;;;;5094171;28;20200;-68
2022/05/05 04:41:47;;;;;;;24.27;6.32;;;;;;;;;;5094187;28;20196;-69
2022/05/05 04:44:15;;;;;;;17.92;6.20;;;;;;;;;;5094376;28;20192;-69
2022/05/05 04:46:42;;;;;;;19.90;5.60;;;;;;;;;;5094104;28;20223;-68
2022/05/05 04:49:10;;;;;;;15.35;5.32;;;;;;;;;;5094234;28;20200;-68
2022/05/05 04:51:37;;;;;;;17.17;6.35;;;;;;;;;;5094211;28;20204;-68
2022/05/05 04:54:05;;;;;;;15.48;5.00;;;;;;;;;;5094132;28;20204;-68
2022/05/05 04:56:32;;;;;;;16.33;6.03;;;;;;;;;;5094575;28;20201;-69
2022/05/05 04:59:01;;;;;;;19.00;5.67;;;;;;;;;;5093923;28;20448;-69
2022/05/05 05:01:28;;;;;;;16.57;5.17;;;;;;;;;;5093687;28;20442;-69
2022/05/05 05:03:56;;;;;;;14.70;4.63;;;;;;;;;;5093866;28;20466;-69
2022/05/05 05:06:23;;;;;;;15.10;4.40;;;;;;;;;;5093580;28;20485;-69
2022/05/05 05:08:51;;;;;;;13.63;3.67;;;;;;;;;;5093962;28;20816;-69
2022/05/05 05:11:19;;;;;;;16.10;4.40;;;;;;;;;;5093539;28;20995;-69
2022/05/05 05:13:47;;;;;;;14.60;4.70;;;;;;;;;;5094297;28;20436;-70
2022/05/05 05:16:15;;;;;;;16.10;5.00;;;;;;;;;;5093633;28;20449;-70
2022/05/05 05:18:43;;;;;;;15.23;4.27;;;;;;;;;;5093399;28;20940;-69
2022/05/05 05:21:10;;;;;;;17.80;4.57;;;;;;;;;;5093664;28;20493;-70
2022/05/05 05:23:38;;;;;;;17.23;4.80;;;;;;;;;;5093689;28;20474;-70
2022/05/05 05:26:06;;;;;;;17.57;5.30;;;;;;;;;;5093471;28;20562;-70
2022/05/05 05:28:33;;;;;;;15.40;4.73;;;;;;;;;;5093333;28;20448;-70
2022/05/05 05:31:01;;;;;;;17.67;5.23;;;;;;;;;;5093325;28;20446;-70
2022/05/05 05:33:30;;;;;;;18.60;6.13;;;;;;;;;;5092613;28;20452;-70
2022/05/05 05:35:57;;;;;;;16.77;5.70;;;;;;;;;;5093183;28;20445;-70
2022/05/05 05:38:25;;;;;;;15.10;4.70;;;;;;;;;;5093275;28;20816;-70
2022/05/05 05:40:54;;;;;;;14.40;3.90;;;;;;;;;;5093415;28;20459;-70
2022/05/05 05:43:22;;;;;;;16.23;3.73;;;;;;;;;;5092906;28;20442;-71
2022/05/05 05:45:50;;;;;;;15.40;4.57;;;;;;;;;;5092826;28;20449;-70
2022/05/05 05:48:17;;;;;;;17.03;4.67;;;;;;;;;;5093201;28;20435;-70
2022/05/05 05:50:46;;;;;;;16.17;4.60;;;;;;;;;;5092941;28;20448;-70
2022/05/05 05:53:13;;;;;;;14.70;4.83;;;;;;;;;;5092751;28;20472;-70
2022/05/05 05:55:40;;;;;;;16.23;4.63;;;;;;;;;;5093184;28;20449;-70
2022/05/05 05:58:08;;;;;;;18.00;4.67;;;;;;;;;;5092916;28;20455;-70
2022/05/05 06:00:38;;;;;;;17.63;5.50;;;;;;;;;;5092652;28;20443;-70
2022/05/05 06:05:52;;;;;;;16.60;5.23;;;;;;;;;;5092788;28;20421;-70
2022/05/05 06:08:19;;;;;;;17.03;5.80;;;;;;;;;;5092719;28;20947;-70
2022/05/05 06:10:47;;;;;;;24.03;5.97;;;;;;;;;;5092991;28;20449;-70
2022/05/05 06:13:14;;;;;;;20.30;6.60;;;;;;;;;;5092319;28;20438;-71
2022/05/05 06:15:42;;;;;;;19.17;7.07;;;;;;;;;;5092453;28;20939;-70
2022/05/05 06:18:10;;;;;;;21.63;7.30;;;;;;;;;;5092486;28;20441;-70
2022/05/05 06:20:37;;;;;;;18.90;6.73;;;;;;;;;;5092395;28;20434;-70
2022/05/05 06:23:06;;;;;;;18.97;7.07;;;;;;;;;;5092275;28;20470;-70
2022/05/05 06:25:33;;;;;;;17.53;6.40;;;;;;;;;;5092150;28;20443;-70
2022/05/05 06:28:01;;;;;;;20.13;7.20;;;;;;;;;;5092280;28;20990;-70
2022/05/05 06:30:28;;;;;;;17.93;6.90;;;;;;;;;;5092644;28;20818;-71
2022/05/05 06:32:56;;;;;;;18.40;6.97;;;;;;;;;;5092760;28;20438;-70
2022/05/05 06:35:24;;;;;;;19.50;6.60;;;;;;;;;;5091938;28;20952;-70
2022/05/05 06:37:51;;;;;;;18.03;6.50;;;;;;;;;;5092143;28;20444;-70
2022/05/05 06:40:20;;;;;;;18.87;6.77;;;;;;;;;;5092753;28;20445;-70
2022/05/05 06:42:48;;;;;;;18.93;7.50;;;;;;;;;;5092397;28;20438;-70
2022/05/05 06:45:16;;;;;;;18.10;6.93;;;;;;;;;;5091171;28;20441;-70
2022/05/05 06:47:43;;;;;;;18.70;6.90;;;;;;;;;;5092066;28;20483;-70
2022/05/05 06:50:12;;;;;;;17.80;6.30;;;;;;;;;;5092144;28;20444;-70
2022/05/05 06:52:39;;;;;;;19.70;6.83;;;;;;;;;;5091960;28;20454;-70
2022/05/05 06:55:07;;;;;;;18.53;7.30;;;;;;;;;;5091970;28;20445;-70
2022/05/05 06:57:37;;;;;;;17.40;5.93;;;;;;;;;;5091802;28;20449;-70
2022/05/05 07:00:04;;;;;;;18.80;6.10;;;;;;;;;;5092101;28;20836;-69
2022/05/05 07:02:31;;;;;;;20.00;7.40;;;;;;;;;;5091594;28;20442;-69
2022/05/05 07:07:44;;;;;;;22.00;6.83;;;;;;;;;;5092333;28;20587;-70
2022/05/05 07:12:58;;;;;;;20.83;8.47;;;;;;;;;;5091928;28;20426;-70
2022/05/05 07:15:25;;;;;;;22.00;7.27;;;;;;;;;;5091622;28;20629;-70
2022/05/05 07:17:53;;;;;;;21.53;8.47;;;;;;;;;;5092129;28;20443;-70
2022/05/05 07:20:20;;;;;;;20.33;6.83;;;;;;;;;;5092112;28;20455;-70
2022/05/05 07:22:48;;;;;;;21.17;7.60;;;;;;;;;;5091523;28;20450;-70
2022/05/05 07:25:15;;;;;;;22.87;7.20;;;;;;;;;;5091716;28;20981;-70
2022/05/05 07:27:43;;;;;;;18.50;6.67;;;;;;;;;;5091845;28;20881;-71
2022/05/05 07:30:12;;;;;;;18.50;6.77;;;;;;;;;;5091775;28;20445;-70
2022/05/05 07:32:40;;;;;;;20.77;6.90;;;;;;;;;;5092125;28;20453;-70
2022/05/05 07:35:08;;;;;;;21.00;6.97;;;;;;;;;;5091548;28;20529;-70
2022/05/05 07:37:36;;;;;;;20.80;6.90;;;;;;;;;;5091816;28;20472;-70
2022/05/05 07:40:05;;;;;;;20.07;6.90;;;;;;;;;;5091569;28;20430;-71
2022/05/05 07:42:33;;;;;;;19.07;7.27;;;;;;;;;;5091508;28;20442;-70
2022/05/05 07:45:00;;;;;;;18.60;6.60;;;;;;;;;;5091847;28;20441;-70
2022/05/05 07:47:29;;;;;;;20.10;8.00;;;;;;;;;;5091126;28;20486;-70
2022/05/05 07:49:56;;;;;;;21.03;7.80;;;;;;;;;;5091412;28;20444;-70
2022/05/05 07:52:24;;;;;;;18.50;6.40;;;;;;;;;;5091447;28;20961;-70
2022/05/05 07:54:51;;;;;;;23.27;7.90;;;;;;;;;;5091410;28;20799;-70
2022/05/05 07:57:20;;;;;;;17.67;6.07;;;;;;;;;;5094062;28;20445;-70
2022/05/05 07:59:48;;;;;;;19.00;5.50;;;;;;;;;;5095271;28;20486;-70
2022/05/05 08:02:16;;;;;;;17.53;5.87;;;;;;;;;;5094733;28;20434;-70
2022/05/05 08:04:45;;;;;;;18.77;5.77;;;;;;;;;;5094979;28;20444;-70
2022/05/05 08:07:13;;;;;;;17.87;5.90;;;;;;;;;;5094620;28;20483;-69
2022/05/05 08:09:40;;;;;;;16.07;4.73;;;;;;;;;;5094792;28;20457;-70
2022/05/05 08:12:09;;;;;;;18.40;5.00;;;;;;;;;;5095147;28;20439;-70
2022/05/05 08:14:36;;;;;;;16.60;4.20;;;;;;;;;;5095190;28;20450;-70
2022/05/05 08:17:04;;;;;;;19.20;5.00;;;;;;;;;;5094856;28;20450;-70
2022/05/05 08:19:31;;;;;;;21.80;4.43;;;;;;;;;;5094684;28;20438;-71
2022/05/05 08:22:00;;;;;;;14.20;4.07;;;;;;;;;;5094711;28;20438;-70
2022/05/05 08:30:02;;;;;;;15.73;3.27;;;;;;;;;;5094657;28;20479;-70
2022/05/05 08:32:30;;;;;;;17.17;4.30;;;;;;;;;;5094413;28;20446;-70
2022/05/05 08:34:57;;;;;;;17.63;3.80;;;;;;;;;;5094437;28;20777;-69
2022/05/05 08:37:26;;;;;;;14.77;3.23;;;;;;;;;;5094581;28;20431;-70
2022/05/05 08:39:53;;;;;;;13.07;2.60;;;;;;;;;;5094377;28;20435;-70
2022/05/05 08:42:21;;;;;;;16.40;3.17;;;;;;;;;;5094418;28;20435;-70
2022/05/05 08:44:48;;;;;;;15.43;2.43;;;;;;;;;;5094393;28;20444;-70
2022/05/05 08:47:18;;;;;;;14.40;3.00;;;;;;;;;;5093960;28;20474;-70
2022/05/05 08:49:45;;;;;;;15.30;3.00;;;;;;;;;;5094303;28;20593;-70
2022/05/05 08:52:19;;;;;;;14.97;2.90;;;;;;;;;;5094118;28;20438;-70
2022/05/05 08:54:49;;;;;;;17.50;2.77;;;;;;;;;;5094046;28;20944;-70
2022/05/05 08:57:17;;;;;;;15.63;3.30;;;;;;;;;;5093950;28;20438;-70
2022/05/05 08:59:45;;;;;;;16.97;3.67;;;;;;;;;;5093882;28;20445;-69
2022/05/05 09:02:12;;;;;;;15.30;2.70;;;;;;;;;;5093561;28;20820;-70
2022/05/05 09:04:45;;;;;;;14.77;2.50;;;;;;;;;;5094269;28;20461;-70
2022/05/05 09:07:13;;;;;;;13.80;2.70;;;;;;;;;;5093440;28;20476;-70
2022/05/05 09:09:40;;;;;;;13.87;2.20;;;;;;;;;;5093404;28;20446;-70
2022/05/05 09:12:10;;;;;;;20.97;3.53;;;;;;;;;;5093690;28;20468;-70
2022/05/05 09:14:39;;;;;;;14.93;3.10;;;;;;;;;;5093936;28;20443;-70
2022/05/05 09:17:07;;;;;;;16.93;3.13;;;;;;;;;;5093578;28;20831;-70
2022/05/05 09:19:37;;;;;;;14.67;3.07;;;;;;;;;;5093681;28;20440;-70
2022/05/05 09:22:06;;;;;;;13.30;2.70;;;;;;;;;;5093622;28;20452;-70
2022/05/05 09:24:40;;;;;;;14.10;3.53;;;;;;;;;;5093645;28;21019;-70
2022/05/05 09:27:19;;;;;;;15.87;3.53;;;;;;;;;;5093628;28;20486;-70
2022/05/05 09:30:00;;;;;;;16.10;3.17;;;;;;;;;;5093528;28;20439;-70
2022/05/05 09:32:31;;;;;;;16.23;3.07;;;;;;;;;;5093228;28;20952;-70
2022/05/05 09:34:59;;;;;;;16.10;2.50;;;;;;;;;;5093193;28;20440;-70
2022/05/05 09:37:27;;;;;;;12.90;2.20;;;;;;;;;;5093211;28;20453;-70
2022/05/05 09:39:55;;;;;;;12.60;2.10;;;;;;;;;;5093310;28;20449;-70
2022/05/05 09:42:37;;;;;;;13.70;2.17;;;;;;;;;;5093054;28;20860;-70
2022/05/05 09:45:29;;;;;;;15.20;2.37;;;;;;;;;;5093085;28;20443;-70
2022/05/05 09:47:58;;;;;;;19.10;2.37;;;;;;;;;;5093579;28;20474;-70
2022/05/05 09:50:25;;;;;;;13.10;2.20;;;;;;;;;;5093159;28;20444;-70
2022/05/05 09:58:26;;;;;;;12.77;2.20;;;;;;;;;;5093121;28;20427;-70
2022/05/05 10:00:59;;;;;;;14.37;2.57;;;;;;;;;;5093026;28;20444;-70
2022/05/05 10:06:18;;;;;;;14.20;1.90;;;;;;;;;;5092911;28;20581;-70
2022/05/05 10:08:47;;;;;;;16.13;2.33;;;;;;;;;;5093223;28;20536;-70
2022/05/05 10:11:15;;;;;;;14.57;2.40;;;;;;;;;;5092766;28;20908;-71
2022/05/05 10:13:45;;;;;;;13.13;2.10;;;;;;;;;;5092851;28;20815;-70
2022/05/05 10:16:14;;;;;;;17.80;2.30;;;;;;;;;;5092782;28;20440;-70
2022/05/05 10:18:42;;;;;;;16.80;2.70;;;;;;;;;;5092263;28;20527;-70
2022/05/05 10:21:10;;;;;;;14.07;2.13;;;;;;;;;;5091778;28;20452;-70
2022/05/05 10:23:44;;;;;;;18.80;2.33;;;;;;;;;;5092385;28;20877;-70
2022/05/05 10:26:12;;;;;;;15.90;2.33;;;;;;;;;;5092708;28;20819;-70
2022/05/05 10:28:40;;;;;;;13.40;2.27;;;;;;;;;;5092338;28;20486;-70
2022/05/05 10:31:24;;;;;;;15.80;2.43;;;;;;;;;;5092170;28;20437;-70
2022/05/05 10:34:06;;;;;;;14.03;2.27;;;;;;;;;;5091869;28;20874;-70
2022/05/05 10:36:34;;;;;;;15.67;2.30;;;;;;;;;;5092245;28;20432;-70
2022/05/05 10:39:17;;;;;;;16.13;2.17;;;;;;;;;;5092205;28;20450;-70
2022/05/05 10:41:45;;;;;;;15.87;2.00;;;;;;;;;;5092141;28;20509;-70
2022/05/05 10:44:22;;;;;;;16.13;2.40;;;;;;;;;;5092037;28;20526;-70
2022/05/05 10:46:57;;;;;;;14.20;2.20;;;;;;;;;;5092374;28;20439;-70
2022/05/05 10:49:43;;;;;;;14.50;1.90;;;;;;;;;;5091868;28;20554;-70
2022/05/05 10:52:32;;;;;;;14.37;2.00;;;;;;;;;;5092021;28;20909;-70
2022/05/05 10:55:19;;;;;;;12.50;1.90;;;;;;;;;;5092186;28;20447;-70
2022/05/05 10:57:47;;;;;;;12.20;1.80;;;;;;;;;;5091843;28;20459;-70
2022/05/05 11:00:18;;;;;;;12.60;2.13;;;;;;;;;;5091905;28;20442;-71
2022/05/05 11:03:00;;;;;;;15.30;2.23;;;;;;;;;;5092264;28;20461;-71
2022/05/05 11:05:28;;;;;;;13.00;2.30;;;;;;;;;;5091669;28;20861;-70
2022/05/05 11:08:19;;;;;;;13.60;2.43;;;;;;;;;;5091926;28;20481;-71
2022/05/05 11:10:47;;;;;;;13.27;2.10;;;;;;;;;;5091735;28;20460;-70
2022/05/05 11:13:34;;;;;;;13.30;2.00;;;;;;;;;;5091954;28;20456;-70
2022/05/05 11:22:05;;;;;;;17.37;2.03;;;;;;;;;;5091996;28;20460;-70
2022/05/05 11:24:34;;;;;;;12.73;2.10;;;;;;;;;;5091776;28;20470;-70
2022/05/05 11:27:01;;;;;;;16.10;1.80;;;;;;;;;;5091697;28;20441;-71
2022/05/05 11:29:30;;;;;;;15.30;2.20;;;;;;;;;;5091384;28;20484;-70
2022/05/05 11:31:58;;;;;;;20.13;3.00;;;;;;;;;;5094397;28;20865;-70
2022/05/05 11:34:32;;;;;;;12.03;1.37;;;;;;;;;;5095887;28;20495;-70
2022/05/05 11:37:00;;;;;;;13.80;2.10;;;;;;;;;;5095581;28;20999;-72
2022/05/05 11:39:28;;;;;;;14.03;2.00;;;;;;;;;;5095575;28;20470;-70
2022/05/05 11:42:00;;;;;;;13.77;2.20;;;;;;;;;;5095546;28;20433;-70
2022/05/05 11:44:27;;;;;;;14.63;2.43;;;;;;;;;;5095975;28;20807;-70
2022/05/05 11:46:57;;;;;;;17.57;2.53;;;;;;;;;;5095998;28;20445;-70
2022/05/05 11:49:32;;;;;;;13.33;2.30;;;;;;;;;;5095010;28;20481;-71
2022/05/05 11:51:59;;;;;;;13.23;1.60;;;;;;;;;;5095679;28;20437;-70
2022/05/05 11:54:29;;;;;;;15.50;2.57;;;;;;;;;;5095267;28;20445;-70
2022/05/05 11:56:56;;;;;;;13.10;2.30;;;;;;;;;;5095621;28;20829;-70
2022/05/05 12:02:12;;;;;;;13.63;2.20;;;;;;;;;;5095268;28;20433;-71
2022/05/05 12:04:40;;;;;;;13.60;2.20;;;;;;;;;;5095115;28;20434;-70
2022/05/05 12:07:09;;;;;;;18.20;2.47;;;;;;;;;;5094965;28;21017;-71
2022/05/05 12:09:37;;;;;;;14.53;2.23;;;;;;;;;;5094820;28;20480;-71
2022/05/05 12:12:12;;;;;;;15.73;2.57;;;;;;;;;;5095005;28;20971;-70
2022/05/05 12:14:44;;;;;;;14.57;2.23;;;;;;;;;;5094972;28;20441;-71
2022/05/05 12:17:14;;;;;;;12.60;2.07;;;;;;;;;;5094518;28;20525;-71
2022/05/05 12:19:49;;;;;;;12.20;1.70;;;;;;;;;;5094789;28;20446;-71
2022/05/05 12:22:21;;;;;;;13.97;2.33;;;;;;;;;;5094793;28;20434;-70
2022/05/05 12:24:48;;;;;;;13.80;2.43;;;;;;;;;;5094978;28;20486;-70
2022/05/05 12:27:17;;;;;;;14.80;3.10;;;;;;;;;;5094362;28;20943;-70
2022/05/05 12:29:47;;;;;;;12.40;1.80;;;;;;;;;;5094632;28;20477;-71
2022/05/05 12:32:16;;;;;;;12.90;2.23;;;;;;;;;;5094358;28;20460;-71
2022/05/05 12:34:44;;;;;;;13.67;2.30;;;;;;;;;;5094501;28;20932;-71
2022/05/05 12:37:14;;;;;;;14.07;2.37;;;;;;;;;;5094276;28;20445;-71
2022/05/05 12:39:52;;;;;;;13.33;1.87;;;;;;;;;;5094472;28;20442;-70
2022/05/05 12:42:21;;;;;;;18.53;2.00;;;;;;;;;;5093461;28;20981;-70
2022/05/05 12:44:51;;;;;;;12.77;2.10;;;;;;;;;;5094236;28;20437;-70
2022/05/05 12:47:25;;;;;;;12.47;2.17;;;;;;;;;;5094267;28;20960;-71
2022/05/05 12:49:53;;;;;;;12.60;2.10;;;;;;;;;;5094576;28;20516;-70
2022/05/05 13:00:52;;;;;;;14.73;2.67;;;;;;;;;;5094266;28;20543;-71
2022/05/05 13:03:22;;;;;;;14.07;2.60;;;;;;;;;;5093514;28;20460;-71
2022/05/05 13:05:50;;;;;;;13.27;2.37;;;;;;;;;;5093805;28;20434;-71
2022/05/05 13:08:17;;;;;;;13.20;2.20;;;;;;;;;;5093936;28;20486;-71
2022/05/05 13:10:46;;;;;;;15.73;1.80;;;;;;;;;;5093992;28;20435;-71
2022/05/05 13:13:13;;;;;;;13.83;2.10;;;;;;;;;;5093448;28;20993;-70
2022/05/05 13:15:41;;;;;;;15.70;2.40;;;;;;;;;;5093544;28;20434;-70
2022/05/05 13:18:10;;;;;;;12.67;2.30;;;;;;;;;;5093706;28;20508;-71
2022/05/05 13:20:38;;;;;;;13.30;2.30;;;;;;;;;;5093760;28;20442;-70
2022/05/05 13:23:06;;;;;;;14.63;3.00;;;;;;;;;;5093389;28;21000;-70
2022/05/05 13:25:33;;;;;;;17.63;2.40;;;;;;;;;;5093321;28;20441;-71
2022/05/05 13:28:02;;;;;;;13.60;2.43;;;;;;;;;;5093240;28;20444;-71
2022/05/05 13:30:29;;;;;;;15.00;2.47;;;;;;;;;;5093319;28;20440;-70
2022/05/05 13:32:57;;;;;;;13.37;2.33;;;;;;;;;;5093913;28;20433;-71
2022/05/05 13:35:26;;;;;;;14.80;2.20;;;;;;;;;;5093055;28;20940;-71
2022/05/05 13:37:54;;;;;;;15.67;2.40;;;;;;;;;;5093395;28;20947;-71
2022/05/05 13:40:22;;;;;;;13.53;2.20;;;;;;;;;;5093216;28;20442;-71
2022/05/05 13:42:49;;;;;;;13.37;2.40;;;;;;;;;;5093107;28;20477;-70
2022/05/05 13:45:17;;;;;;;13.23;2.30;;;;;;;;;;5093114;28;20442;-71
2022/05/05 13:47:45;;;;;;;13.10;2.40;;;;;;;;;;5093421;28;20442;-70
2022/05/05 13:50:13;;;;;;;14.30;2.70;;;;;;;;;;5092890;28;21023;-70
2022/05/05 13:52:43;;;;;;;12.10;1.73;;;;;;;;;;5093087;28;20445;-71
2022/05/05 13:55:11;;;;;;;12.60;2.03;;;;;;;;;;5092599;28;20436;-71
2022/05/05 13:57:40;;;;;;;13.23;2.40;;;;;;;;;;5092783;28;20443;-70
2022/05/05 14:00:08;;;;;;;12.83;2.20;;;;;;;;;;5093091;28;20469;-72
2022/05/05 14:02:36;;;;;;;12.93;2.30;;;;;;;;;;5092381;28;20467;-70
2022/05/05 14:05:03;;;;;;;15.77;2.80;;;;;;;;;;5092683;28;20452;-71
2022/05/05 14:13:02;;;;;;;13.37;2.57;;;;;;;;;;5092754;28;20474;-71
2022/05/05 14:15:31;;;;;;;15.10;2.00;;;;;;;;;;5092288;28;20455;-70
2022/05/05 14:17:58;;;;;;;14.27;2.40;;;;;;;;;;5092470;28;20439;-71
2022/05/05 14:20:28;;;;;;;14.30;2.40;;;;;;;;;;5092480;28;20601;-70
2022/05/05 14:22:56;;;;;;;15.27;2.60;;;;;;;;;;5092934;28;20476;-71
2022/05/05 14:25:26;;;;;;;13.60;2.40;;;;;;;;;;5092397;28;20445;-71
2022/05/05 14:27:54;;;;;;;14.00;2.30;;;;;;;;;;5092273;28;20502;-71
2022/05/05 14:30:21;;;;;;;15.07;3.00;;;;;;;;;;5092595;28;20503;-70
2022/05/05 14:32:49;;;;;;;16.03;2.40;;;;;;;;;;5092249;28;20452;-70
2022/05/05 14:35:16;;;;;;;18.43;2.70;;;;;;;;;;5092017;28;20973;-71
2022/05/05 14:37:44;;;;;;;14.63;2.50;;;;;;;;;;5092134;28;20955;-71
2022/05/05 14:40:13;;;;;;;18.40;2.90;;;;;;;;;;5092143;28;20467;-71
2022/05/05 14:42:43;;;;;;;13.97;2.70;;;;;;;;;;5092225;28;20501;-71
2022/05/05 14:45:16;;;;;;;28.33;5.47;;;;;;;;;;5091992;28;20446;-71
2022/05/05 14:47:44;;;;;;;16.10;3.33;;;;;;;;;;5092591;28;20447;-70
2022/05/05 14:50:11;;;;;;;14.93;3.10;;;;;;;;;;5092128;28;20483;-70
2022/05/05 14:52:39;;;;;;;13.70;2.80;;;;;;;;;;5091996;28;20444;-71
2022/05/05 14:55:07;;;;;;;15.10;2.27;;;;;;;;;;5091976;28;20440;-70
2022/05/05 14:57:36;;;;;;;14.37;2.30;;;;;;;;;;5091814;28;20494;-71
2022/05/05 15:00:07;;;;;;;13.17;2.50;;;;;;;;;;5092132;28;20792;-71
2022/05/05 15:02:34;;;;;;;15.57;3.70;;;;;;;;;;5091851;28;20490;-71
2022/05/05 15:05:02;;;;;;;15.13;3.33;;;;;;;;;;5092184;28;20448;-71
2022/05/05 15:07:30;;;;;;;14.77;2.50;;;;;;;;;;5095667;28;20819;-71
2022/05/05 15:09:57;;;;;;;13.73;2.17;;;;;;;;;;5095974;28;20482;-70
2022/05/05 15:12:24;;;;;;;13.40;2.20;;;;;;;;;;5096322;28;20448;-71
2022/05/05 15:14:52;;;;;;;16.80;2.90;;;;;;;;;;5096001;28;20446;-71
2022/05/05 15:17:22;;;;;;;15.20;2.60;;;;;;;;;;5096064;28;20488;-70
2022/05/05 15:19:49;;;;;;;14.70;2.50;;;;;;;;;;5096376;28;20550;-70
2022/05/05 15:22:17;;;;;;;12.97;2.40;;;;;;;;;;5095779;28;20437;-71
2022/05/05 15:25:02;;;;;;;14.77;2.50;;;;;;;;;;5095869;28;20474;-71
2022/05/05 15:27:30;;;;;;;13.07;2.00;;;;;;;;;;5095810;28;20454;-70
2022/05/05 15:29:57;;;;;;;13.17;2.40;;;;;;;;;;5095853;28;20476;-71
2022/05/05 15:32:29;;;;;;;17.07;2.70;;;;;;;;;;5095939;28;20438;-71
2022/05/05 15:34:57;;;;;;;17.50;4.07;;;;;;;;;;5095688;28;20486;-71
2022/05/05 15:37:25;;;;;;;17.03;2.40;;;;;;;;;;5095382;28;20451;-71